Time;durP1;ratioP1;P1;durP2;ratioP2;P2;SDS_P1;SDS_P2;PMS_P1;PMS_P2;Temp;Humidity;BMP_temperature;BMP_pressure;BME280_temperature;BME280_humidity;BME280_pressure;Samples;Min_cycle;Max_cycle;Signal;HPM_P1;HPM_P2
2024/01/19 00:00:15;;;;;;;6.35;4.90;;;;;;;3.84;100.00;96103.13;1225572;75;2918697;-66
2024/01/19 00:02:48;;;;;;;6.55;5.05;;;;;;;3.81;100.00;96117.59;1224894;75;2923477;-66
2024/01/19 00:05:21;;;;;;;9.10;5.95;;;;;;;3.80;100.00;96127.69;1225200;75;2917050;-65
2024/01/19 00:07:54;;;;;;;6.65;4.80;;;;;;;3.83;100.00;96126.72;1224725;75;2920808;-65
2024/01/19 00:10:27;;;;;;;7.55;5.35;;;;;;;3.86;100.00;96133.16;1224177;75;2916163;-69
2024/01/19 00:13:00;;;;;;;7.15;4.85;;;;;;;3.97;100.00;96146.13;1225012;75;2919783;-65
2024/01/19 00:15:35;;;;;;;7.95;5.60;;;;;;;3.96;100.00;96144.66;1225301;75;2920050;-65
2024/01/19 00:18:09;;;;;;;6.50;4.65;;;;;;;3.93;100.00;96159.88;1225510;75;2921795;-67
2024/01/19 00:20:41;;;;;;;8.05;6.15;;;;;;;3.93;100.00;96162.56;1224890;75;2923409;-65
2024/01/19 00:23:14;;;;;;;6.70;5.10;;;;;;;3.91;100.00;96177.78;1224652;75;2923928;-65
2024/01/19 00:25:47;;;;;;;5.85;4.60;;;;;;;4.07;100.00;96174.63;1225480;75;2915276;-66
2024/01/19 00:28:20;;;;;;;5.50;4.30;;;;;;;4.08;100.00;96188.91;1225687;83;2918446;-64
2024/01/19 00:30:55;;;;;;;8.30;5.65;;;;;;;3.84;100.00;96203.28;1223782;75;2922938;-66
2024/01/19 00:33:28;;;;;;;8.20;6.30;;;;;;;4.01;100.00;96203.56;1225215;75;2913607;-66
2024/01/19 00:36:01;;;;;;;7.35;5.50;;;;;;;3.92;100.00;96195.53;1225464;75;2919819;-66
2024/01/19 00:38:34;;;;;;;7.70;5.75;;;;;;;4.14;100.00;96209.44;1225227;75;2922485;-66
2024/01/19 00:41:07;;;;;;;6.25;4.80;;;;;;;4.20;100.00;96214.94;1223996;75;2913527;-65
2024/01/19 00:43:40;;;;;;;6.15;4.50;;;;;;;4.12;100.00;96222.69;1225300;75;2917311;-66
2024/01/19 00:46:15;;;;;;;5.30;4.40;;;;;;;4.12;100.00;96236.25;1225276;75;2919253;-67
2024/01/19 00:48:48;;;;;;;5.20;3.85;;;;;;;4.10;100.00;96235.97;1225607;75;2913223;-65
2024/01/19 00:51:21;;;;;;;6.10;4.15;;;;;;;4.05;100.00;96239.31;1224480;75;2917172;-66
2024/01/19 00:53:54;;;;;;;4.75;3.80;;;;;;;4.26;100.00;96237.47;1225629;75;2924147;-65
2024/01/19 00:56:27;;;;;;;5.80;4.35;;;;;;;4.38;100.00;96241.84;1224628;75;2914358;-65
2024/01/19 00:58:59;;;;;;;6.05;4.40;;;;;;;4.56;100.00;96240.13;1226189;75;2914079;-67
2024/01/19 01:01:35;;;;;;;4.40;3.40;;;;;;;4.69;100.00;96238.63;1224437;75;2922728;-64
2024/01/19 01:04:08;;;;;;;3.50;2.70;;;;;;;4.79;100.00;96241.97;1225303;75;2913157;-64
2024/01/19 01:06:41;;;;;;;3.40;2.40;;;;;;;4.96;100.00;96253.03;1225477;75;2920942;-66
2024/01/19 01:09:14;;;;;;;3.05;2.25;;;;;;;5.00;100.00;96256.28;1225536;75;2917466;-65
2024/01/19 01:11:47;;;;;;;3.40;2.45;;;;;;;5.02;100.00;96267.41;1224667;75;2918322;-65
2024/01/19 01:14:20;;;;;;;2.85;2.00;;;;;;;5.11;100.00;96271.97;1225334;75;2917745;-64
2024/01/19 01:16:55;;;;;;;2.65;2.00;;;;;;;5.23;100.00;96272.88;1225340;75;2920081;-66
2024/01/19 01:19:28;;;;;;;1.95;1.70;;;;;;;5.26;100.00;96283.50;1224817;75;2918386;-65
2024/01/19 01:22:02;;;;;;;2.00;1.50;;;;;;;5.51;100.00;96292.22;1223697;75;2918721;-65
2024/01/19 01:24:34;;;;;;;1.70;1.10;;;;;;;5.50;100.00;96294.19;1223644;75;2923187;-66
2024/01/19 01:27:08;;;;;;;1.20;1.05;;;;;;;5.55;100.00;96293.50;1224045;75;2921080;-65
2024/01/19 01:29:40;;;;;;;1.20;1.10;;;;;;;5.38;100.00;96303.41;1225062;75;2919274;-66
2024/01/19 01:32:16;;;;;;;1.20;1.00;;;;;;;5.43;100.00;96308.16;1224852;75;2922788;-67
2024/01/19 01:34:49;;;;;;;1.00;0.80;;;;;;;5.39;100.00;96306.84;1223421;75;2921954;-66
2024/01/19 01:37:22;;;;;;;0.80;0.80;;;;;;;5.52;100.00;96299.88;1224383;75;2926461;-66
2024/01/19 01:39:55;;;;;;;1.05;0.70;;;;;;;5.45;100.00;96303.00;1224452;75;2922231;-64
2024/01/19 01:42:27;;;;;;;0.80;0.80;;;;;;;5.40;100.00;96308.38;1222818;75;2921888;-66
2024/01/19 01:45:01;;;;;;;1.00;0.80;;;;;;;5.29;100.00;96312.44;1224840;75;2915312;-66
2024/01/19 01:47:37;;;;;;;0.70;0.60;;;;;;;5.34;100.00;96313.72;1224646;75;2922790;-66
2024/01/19 01:50:12;;;;;;;0.90;0.75;;;;;;;5.24;100.00;96310.38;1225409;75;2948863;-65
2024/01/19 01:52:45;;;;;;;0.85;0.65;;;;;;;5.26;100.00;96315.31;1225186;83;2914955;-67
2024/01/19 01:55:18;;;;;;;1.10;0.70;;;;;;;5.26;100.00;96326.19;1225564;75;2914207;-66
2024/01/19 01:57:51;;;;;;;0.70;0.70;;;;;;;5.39;100.00;96323.91;1225453;75;2916951;-64
2024/01/19 02:00:25;;;;;;;0.95;0.80;;;;;;;5.41;100.00;96320.69;1224484;75;2915725;-65
2024/01/19 02:03:02;;;;;;;0.60;0.60;;;;;;;5.52;100.00;96327.03;1225428;75;2914045;-66
2024/01/19 02:05:35;;;;;;;0.80;0.80;;;;;;;5.51;100.00;96332.94;1226092;75;2917886;-66
2024/01/19 02:08:08;;;;;;;0.60;0.60;;;;;;;5.41;100.00;96345.13;1225286;75;2916735;-66
2024/01/19 02:10:41;;;;;;;0.80;0.80;;;;;;;5.42;100.00;96339.22;1225222;75;2918169;-66
2024/01/19 02:13:14;;;;;;;1.35;1.25;;;;;;;5.38;100.00;96346.81;1225207;75;2928788;-66
2024/01/19 02:15:47;;;;;;;2.65;2.00;;;;;;;5.38;100.00;96357.66;1225200;75;2911428;-67
2024/01/19 02:18:22;;;;;;;2.65;1.90;;;;;;;5.29;100.00;96363.22;1225740;75;2919080;-64
2024/01/19 02:20:56;;;;;;;3.00;2.55;;;;;;;5.27;100.00;96365.69;1224683;75;2918761;-65
2024/01/19 02:23:33;;;;;;;5.55;4.00;;;;;;;4.73;100.00;96375.91;1223985;75;2914166;-66
2024/01/19 02:26:09;;;;;;;1.40;0.85;;;;;;;4.93;100.00;96381.44;1223827;75;2929805;-65
2024/01/19 02:28:42;;;;;;;1.30;1.15;;;;;;;4.98;100.00;96390.84;1224405;75;2933169;-66
2024/01/19 02:31:15;;;;;;;1.80;1.40;;;;;;;4.90;100.00;96401.34;1223768;75;2910314;-68
2024/01/19 02:33:48;;;;;;;1.50;1.30;;;;;;;4.81;100.00;96402.19;1224271;75;2920777;-65
2024/01/19 02:36:21;;;;;;;1.20;1.05;;;;;;;4.82;100.00;96408.38;1223847;75;2923074;-69
2024/01/19 02:38:53;;;;;;;1.15;0.85;;;;;;;4.86;100.00;96411.66;1223796;75;2926909;-65
2024/01/19 02:41:29;;;;;;;1.00;0.90;;;;;;;4.74;100.00;96421.53;1222970;75;2927303;-66
2024/01/19 02:44:02;;;;;;;0.60;0.60;;;;;;;4.72;100.00;96425.94;1224636;75;2925543;-67
2024/01/19 02:46:38;;;;;;;0.60;0.60;;;;;;;4.84;100.00;96436.50;1225038;75;2930942;-67
2024/01/19 02:49:11;;;;;;;0.60;0.60;;;;;;;4.70;97.53;96442.66;1224799;75;2914317;-65
2024/01/19 02:51:43;;;;;;;0.50;0.50;;;;;;;4.62;95.97;96449.66;1223513;75;2921617;-67
2024/01/19 02:54:16;;;;;;;0.70;0.60;;;;;;;4.69;96.89;96471.75;1224905;75;2920654;-68
2024/01/19 02:56:52;;;;;;;0.60;0.50;;;;;;;4.84;92.58;96462.88;1224832;75;2921100;-62
2024/01/19 02:59:24;;;;;;;1.05;0.60;;;;;;;4.65;97.62;96462.28;1224633;75;2921143;-65
2024/01/19 03:01:57;;;;;;;0.80;0.70;;;;;;;4.54;94.52;96470.94;1222871;75;2922565;-66
2024/01/19 03:04:30;;;;;;;0.55;0.55;;;;;;;4.56;89.41;96479.38;1224681;75;2924975;-65
2024/01/19 03:07:03;;;;;;;0.40;0.40;;;;;;;4.39;91.38;96475.59;1224161;75;2924211;-67
2024/01/19 03:09:35;;;;;;;0.50;0.50;;;;;;;4.42;87.14;96471.94;1224319;75;2929374;-65
2024/01/19 03:12:11;;;;;;;0.50;0.50;;;;;;;4.40;88.17;96477.06;1223430;75;2921070;-64
2024/01/19 03:14:44;;;;;;;0.40;0.40;;;;;;;4.30;96.62;96492.66;1224497;75;2923940;-65
2024/01/19 03:17:17;;;;;;;1.05;0.90;;;;;;;4.49;100.00;96501.41;1225256;75;2917428;-65
2024/01/19 03:19:50;;;;;;;0.95;0.80;;;;;;;4.44;100.00;96497.38;1224691;75;2918616;-65
2024/01/19 03:22:23;;;;;;;1.00;0.80;;;;;;;4.29;100.00;96503.97;1224725;75;2920482;-66
2024/01/19 03:24:55;;;;;;;1.30;1.00;;;;;;;4.17;100.00;96511.84;1223248;75;2944904;-71
2024/01/19 03:27:31;;;;;;;0.60;0.60;;;;;;;4.19;96.80;96512.13;1223944;75;2924261;-67
2024/01/19 03:30:04;;;;;;;0.80;0.80;;;;;;;4.03;100.00;96512.53;1224960;75;2922493;-63
2024/01/19 03:32:36;;;;;;;2.05;1.20;;;;;;;3.98;100.00;96518.56;1224528;75;2925721;-64
2024/01/19 03:35:10;;;;;;;0.85;0.85;;;;;;;3.99;100.00;96525.47;1224932;75;2919761;-66
2024/01/19 03:37:43;;;;;;;0.75;0.50;;;;;;;3.97;98.38;96517.84;1224637;75;2919466;-66
2024/01/19 03:40:15;;;;;;;0.40;0.40;;;;;;;3.78;100.00;96532.66;1224434;75;2922755;-65
2024/01/19 03:42:51;;;;;;;0.75;0.75;;;;;;;3.65;100.00;96538.25;1225303;75;2914500;-66
2024/01/19 03:45:24;;;;;;;0.65;0.60;;;;;;;3.68;100.00;96558.25;1224073;75;2921247;-65
2024/01/19 03:47:58;;;;;;;0.80;0.60;;;;;;;3.51;100.00;96557.84;1224357;75;2920876;-64
2024/01/19 03:50:30;;;;;;;0.70;0.60;;;;;;;3.19;100.00;96552.63;1223996;75;2924200;-66
2024/01/19 03:53:03;;;;;;;0.45;0.45;;;;;;;3.07;100.00;96569.78;1224082;75;2926316;-67
2024/01/19 03:55:36;;;;;;;0.50;0.50;;;;;;;3.05;100.00;96584.97;1223612;75;2928283;-65
2024/01/19 03:58:11;;;;;;;0.40;0.40;;;;;;;2.93;100.00;96587.34;1223615;75;2937673;-65
2024/01/19 04:00:45;;;;;;;0.45;0.45;;;;;;;2.89;100.00;96588.72;1222948;75;2926273;-65
2024/01/19 04:03:19;;;;;;;5.10;3.85;;;;;;;2.82;100.00;96600.59;1224269;75;2919732;-65
2024/01/19 04:05:52;;;;;;;1.10;1.00;;;;;;;2.81;100.00;96604.47;1223982;75;2923261;-66
2024/01/19 04:08:25;;;;;;;0.60;0.60;;;;;;;2.76;100.00;96613.19;1223933;75;2928827;-68
2024/01/19 04:10:58;;;;;;;0.85;0.50;;;;;;;2.74;100.00;96610.16;1223276;75;2919702;-68
2024/01/19 04:13:33;;;;;;;2.00;0.55;;;;;;;2.73;100.00;96617.53;1223852;75;2925722;-65
2024/01/19 04:16:08;;;;;;;0.50;0.50;;;;;;;2.63;100.00;96620.69;1223855;75;2923181;-65
2024/01/19 04:18:41;;;;;;;2.30;0.60;;;;;;;2.59;100.00;96645.13;1223843;75;2927564;-65
2024/01/19 04:21:14;;;;;;;0.85;0.85;;;;;;;2.61;100.00;96639.28;1222985;75;2926901;-66
2024/01/19 04:23:48;;;;;;;0.80;0.80;;;;;;;2.51;100.00;96643.91;1224448;83;2947072;-66
2024/01/19 04:26:20;;;;;;;0.55;0.55;;;;;;;2.45;100.00;96656.47;1224250;75;2923091;-69
2024/01/19 04:28:56;;;;;;;0.70;0.70;;;;;;;2.54;100.00;96670.03;1223945;75;2923972;-65
2024/01/19 04:31:28;;;;;;;0.65;0.60;;;;;;;2.70;100.00;96685.25;1224178;75;2914640;-65
2024/01/19 04:34:01;;;;;;;1.30;0.90;;;;;;;2.75;100.00;96700.88;1225468;75;2913157;-68
2024/01/19 04:36:34;;;;;;;0.80;0.70;;;;;;;2.39;100.00;96680.63;1224931;75;2919704;-68
2024/01/19 04:39:07;;;;;;;1.60;0.80;;;;;;;2.33;100.00;96701.31;1225494;75;2918004;-67
2024/01/19 04:41:40;;;;;;;1.25;1.00;;;;;;;2.40;100.00;96711.09;1224482;75;2926388;-65
2024/01/19 04:44:15;;;;;;;1.55;1.10;;;;;;;2.55;100.00;96720.16;1224412;75;2924895;-65
2024/01/19 04:46:48;;;;;;;1.15;1.00;;;;;;;2.58;100.00;96724.69;1225413;67;2917843;-65
2024/01/19 04:49:21;;;;;;;1.00;0.90;;;;;;;2.39;100.00;96723.84;1224352;75;2915937;-66
2024/01/19 04:51:53;;;;;;;1.05;0.95;;;;;;;2.50;100.00;96736.94;1223837;75;2919167;-64
2024/01/19 04:54:26;;;;;;;0.90;0.80;;;;;;;2.49;100.00;96744.28;1225249;75;2922323;-65
2024/01/19 04:56:59;;;;;;;1.00;0.90;;;;;;;2.33;100.00;96750.69;1225120;75;2945203;-65
2024/01/19 04:59:34;;;;;;;1.30;1.10;;;;;;;2.36;100.00;96757.16;1225456;67;2918117;-65
2024/01/19 05:02:07;;;;;;;0.90;0.90;;;;;;;2.25;100.00;96768.34;1224216;75;2920755;-67
2024/01/19 05:04:40;;;;;;;1.25;1.15;;;;;;;2.17;100.00;96767.09;1225446;75;2922234;-67
2024/01/19 05:07:13;;;;;;;1.30;1.20;;;;;;;2.13;100.00;96763.75;1225146;75;2921099;-66
2024/01/19 05:09:45;;;;;;;1.55;1.20;;;;;;;1.96;100.00;96784.81;1225075;75;2921223;-64
2024/01/19 05:12:18;;;;;;;3.80;1.40;;;;;;;1.88;100.00;96791.66;1224997;75;2921555;-65
2024/01/19 05:14:54;;;;;;;1.55;1.30;;;;;;;1.91;100.00;96796.16;1224975;75;2917790;-64
2024/01/19 05:17:27;;;;;;;1.20;1.10;;;;;;;1.97;100.00;96797.09;1224678;75;2914179;-65
2024/01/19 05:19:59;;;;;;;2.55;1.30;;;;;;;1.80;100.00;96801.16;1222051;75;3072520;-66
2024/01/19 05:22:32;;;;;;;1.70;1.20;;;;;;;1.75;100.00;96812.53;1224814;75;2920367;-65
2024/01/19 05:25:05;;;;;;;2.95;1.30;;;;;;;1.85;100.00;96814.88;1223542;75;2921293;-66
2024/01/19 05:27:38;;;;;;;2.00;1.30;;;;;;;1.76;100.00;96814.03;1224222;75;2923077;-64
2024/01/19 05:30:15;;;;;;;2.90;2.15;;;;;;;1.74;100.00;96825.25;1224850;75;2919272;-65
2024/01/19 05:32:48;;;;;;;1.95;1.55;;;;;;;1.77;100.00;96829.03;1225191;75;2931551;-65
2024/01/19 05:35:21;;;;;;;3.55;2.80;;;;;;;1.64;100.00;96856.81;1225198;75;2923896;-65
2024/01/19 05:37:54;;;;;;;3.60;2.70;;;;;;;1.61;100.00;96859.59;1225622;75;2921001;-65
2024/01/19 05:40:27;;;;;;;4.85;2.90;;;;;;;1.61;100.00;96873.88;1225493;75;2916788;-65
2024/01/19 05:43:00;;;;;;;8.45;5.65;;;;;;;1.52;100.00;96886.50;1226105;75;2921665;-65
2024/01/19 05:45:36;;;;;;;6.35;4.35;;;;;;;1.42;100.00;96896.41;1225116;75;2923686;-64
2024/01/19 05:48:09;;;;;;;9.30;6.00;;;;;;;1.54;100.00;96906.47;1226244;75;2916526;-66
2024/01/19 05:50:42;;;;;;;4.70;3.70;;;;;;;1.52;100.00;96905.38;1224814;75;2941278;-64
2024/01/19 05:53:15;;;;;;;3.90;3.15;;;;;;;1.57;100.00;96919.06;1225175;75;2925195;-68
2024/01/19 05:55:48;;;;;;;4.50;2.55;;;;;;;1.46;100.00;96922.09;1225919;75;2918500;-64
2024/01/19 05:58:21;;;;;;;3.50;2.30;;;;;;;1.44;100.00;96934.50;1225455;75;2923099;-64
2024/01/19 06:00:57;;;;;;;2.65;1.80;;;;;;;1.63;100.00;96936.22;1223944;75;2922761;-65
2024/01/19 06:03:29;;;;;;;1.60;1.50;;;;;;;1.66;100.00;96946.16;1224654;75;2919743;-65
2024/01/19 06:06:03;;;;;;;2.25;1.75;;;;;;;1.53;100.00;96958.13;1224063;75;2921013;-64
2024/01/19 06:08:36;;;;;;;2.90;1.70;;;;;;;1.58;100.00;96965.69;1224594;75;2922257;-66
2024/01/19 06:11:09;;;;;;;2.20;1.50;;;;;;;1.61;100.00;96964.81;1224147;75;2922368;-68
2024/01/19 06:13:44;;;;;;;1.60;1.40;;;;;;;1.70;100.00;96964.91;1222926;75;2925250;-66
2024/01/19 06:16:19;;;;;;;1.50;1.30;;;;;;;1.65;100.00;96971.59;1223890;75;2916972;-67
2024/01/19 06:18:52;;;;;;;1.70;1.60;;;;;;;1.48;100.00;96959.44;1224378;75;2927024;-65
2024/01/19 06:21:25;;;;;;;2.65;1.60;;;;;;;1.37;100.00;96967.06;1223462;75;2918186;-64
2024/01/19 06:23:58;;;;;;;2.45;2.10;;;;;;;1.39;100.00;96965.44;1224441;75;2921209;-65
2024/01/19 06:26:32;;;;;;;2.05;1.65;;;;;;;1.28;100.00;96965.78;1224738;75;2918520;-65
2024/01/19 06:29:05;;;;;;;2.30;1.85;;;;;;;1.37;100.00;96965.16;1222954;75;2919763;-65
2024/01/19 06:31:47;;;;;;;5.90;4.50;;;;;;;1.39;100.00;96972.78;1224068;75;2916191;-65
2024/01/19 06:34:19;;;;;;;3.35;2.70;;;;;;;1.37;100.00;96980.56;1225594;75;2893224;-64
2024/01/19 06:36:52;;;;;;;2.20;2.00;;;;;;;1.39;100.00;96988.97;1224863;75;2926324;-65
2024/01/19 06:39:25;;;;;;;2.90;1.80;;;;;;;1.35;100.00;97001.78;1224098;75;2926121;-65
2024/01/19 06:41:58;;;;;;;3.30;2.45;;;;;;;1.26;100.00;97008.59;1222530;75;2922202;-64
2024/01/19 06:44:31;;;;;;;2.60;2.10;;;;;;;1.34;100.00;97011.09;1225311;75;2917931;-65
2024/01/19 06:47:07;;;;;;;2.90;2.45;;;;;;;1.09;100.00;97009.84;1223803;75;2921127;-64
2024/01/19 06:49:40;;;;;;;2.85;2.25;;;;;;;1.28;100.00;97013.56;1225465;75;2919848;-66
2024/01/19 06:52:14;;;;;;;2.40;2.20;;;;;;;1.32;100.00;97014.19;1221777;75;2923214;-65
2024/01/19 06:54:46;;;;;;;2.25;2.05;;;;;;;1.11;100.00;97026.38;1223814;75;2922530;-65
2024/01/19 06:57:19;;;;;;;1.80;1.70;;;;;;;1.25;100.00;97042.16;1224040;75;2931649;-67
2024/01/19 06:59:52;;;;;;;1.85;1.65;;;;;;;1.28;100.00;97052.06;1224239;75;2924286;-64
2024/01/19 07:02:28;;;;;;;2.30;1.50;;;;;;;1.33;100.00;97066.22;1223208;75;2936279;-65
2024/01/19 07:05:00;;;;;;;1.75;1.65;;;;;;;1.01;100.00;97065.91;1223032;75;2926961;-64
2024/01/19 07:07:33;;;;;;;2.45;1.55;;;;;;;1.22;100.00;97082.66;1223331;75;2934070;-64
2024/01/19 07:10:07;;;;;;;1.95;1.75;;;;;;;1.09;100.00;97069.16;1224765;75;2920697;-64
2024/01/19 07:12:40;;;;;;;2.10;1.80;;;;;;;1.13;100.00;97064.44;1225048;75;2915952;-65
2024/01/19 07:15:13;;;;;;;4.00;1.95;;;;;;;0.81;100.00;97067.97;1225458;75;2920417;-64
2024/01/19 07:17:48;;;;;;;1.95;1.75;;;;;;;1.09;100.00;97063.78;1223397;75;2916531;-64
2024/01/19 07:20:21;;;;;;;1.85;1.60;;;;;;;1.18;100.00;97055.03;1225364;75;2923142;-67
2024/01/19 07:22:55;;;;;;;2.05;1.75;;;;;;;0.98;100.00;97058.66;1222442;75;2949234;-64
2024/01/19 07:25:28;;;;;;;2.25;1.55;;;;;;;1.03;100.00;97068.94;1223063;75;3024986;-64
2024/01/19 07:28:04;;;;;;;2.05;1.85;;;;;;;0.82;100.00;97058.72;1224828;75;2928925;-64
2024/01/19 07:30:37;;;;;;;1.80;1.70;;;;;;;0.94;100.00;97051.84;1223429;75;2918194;-63
2024/01/19 07:33:13;;;;;;;2.30;1.60;;;;;;;0.91;100.00;97060.78;1225193;75;2926726;-63
2024/01/19 07:35:45;;;;;;;1.90;1.70;;;;;;;1.02;100.00;97072.78;1224683;75;2922594;-66
2024/01/19 07:38:18;;;;;;;2.35;1.50;;;;;;;0.89;100.00;97084.69;1224889;75;2920710;-65
2024/01/19 07:40:51;;;;;;;1.45;1.35;;;;;;;0.81;100.00;97092.97;1224951;75;2923222;-64
2024/01/19 07:43:24;;;;;;;2.40;1.35;;;;;;;0.76;100.00;97096.19;1225064;75;2923061;-63
2024/01/19 07:45:56;;;;;;;2.15;1.85;;;;;;;0.74;100.00;97087.75;1225346;75;2915883;-64
2024/01/19 07:48:32;;;;;;;1.65;1.45;;;;;;;0.90;100.00;97108.53;1225183;75;2917779;-63
2024/01/19 07:51:05;;;;;;;1.75;1.40;;;;;;;1.04;100.00;97115.50;1223615;75;2920375;-63
2024/01/19 07:53:38;;;;;;;2.60;1.85;;;;;;;0.60;100.00;97133.91;1224039;75;2923409;-63
2024/01/19 07:56:11;;;;;;;2.45;1.90;;;;;;;0.53;100.00;97150.22;1224223;75;2920809;-64
2024/01/19 07:58:47;;;;;;;3.20;2.20;;;;;;;0.51;100.00;97147.22;1224349;75;2920541;-65
2024/01/19 08:01:20;;;;;;;2.30;1.90;;;;;;;0.79;100.00;97157.28;1223342;75;2921336;-62
2024/01/19 08:03:52;;;;;;;2.35;2.10;;;;;;;0.46;100.00;97153.09;1224123;75;2940915;-65
2024/01/19 08:06:25;;;;;;;3.90;2.60;;;;;;;0.52;100.00;97159.50;1223721;75;2930680;-65
2024/01/19 08:08:58;;;;;;;2.10;1.90;;;;;;;0.57;100.00;97169.75;1223817;75;2917673;-63
2024/01/19 08:11:31;;;;;;;3.10;2.30;;;;;;;0.27;100.00;97176.22;1223891;75;2954618;-65
2024/01/19 08:14:04;;;;;;;2.85;2.25;;;;;;;0.29;100.00;97188.09;1224561;75;2924469;-64
2024/01/19 08:16:37;;;;;;;2.95;2.60;;;;;;;0.40;100.00;97187.84;1221433;75;2924203;-63
2024/01/19 08:19:12;;;;;;;2.95;2.65;;;;;;;0.67;100.00;97198.38;1223817;75;2923676;-66
2024/01/19 08:21:46;;;;;;;2.35;1.90;;;;;;;0.76;100.00;97208.56;1223099;75;2920297;-64
2024/01/19 08:24:18;;;;;;;2.65;2.10;;;;;;;0.91;100.00;97217.06;1224254;75;2918608;-65
2024/01/19 08:26:51;;;;;;;5.30;3.40;;;;;;;0.36;100.00;97227.53;1224717;75;2925689;-64
2024/01/19 08:29:24;;;;;;;4.25;3.65;;;;;;;0.29;100.00;97239.25;1224331;75;2924842;-64
2024/01/19 08:31:57;;;;;;;4.50;3.45;;;;;;;0.38;100.00;97246.72;1224163;75;2919762;-66
2024/01/19 08:34:33;;;;;;;2.95;2.40;;;;;;;0.74;100.00;97243.25;1223128;75;2924403;-68
2024/01/19 08:37:06;;;;;;;2.65;2.20;;;;;;;0.63;100.00;97259.69;1223730;75;2948032;-64
2024/01/19 08:39:39;;;;;;;2.80;2.30;;;;;;;0.55;100.00;97272.50;1222771;75;2957146;-64
2024/01/19 08:42:12;;;;;;;2.75;2.30;;;;;;;0.56;100.00;97267.91;1223507;83;2922821;-65
2024/01/19 08:44:47;;;;;;;4.20;3.10;;;;;;;0.30;100.00;97275.75;1224087;75;2918021;-65
2024/01/19 08:47:22;;;;;;;6.50;2.75;;;;;;;-0.16;100.00;97282.03;1224404;75;2920713;-64
2024/01/19 08:49:59;;;;;;;4.60;3.25;;;;;;;-0.10;100.00;97296.53;1223791;75;2922826;-64
2024/01/19 08:52:32;;;;;;;3.25;2.75;;;;;;;0.16;100.00;97302.94;1223415;75;2922610;-64
2024/01/19 08:55:05;;;;;;;4.15;3.00;;;;;;;0.07;100.00;97308.13;1223830;75;2926215;-64
2024/01/19 08:57:38;;;;;;;4.20;3.00;;;;;;;-0.13;100.00;97303.50;1224689;75;2924735;-67
2024/01/19 09:00:13;;;;;;;4.30;3.30;;;;;;;-0.07;100.00;97314.56;1225075;75;2919697;-67
2024/01/19 09:02:46;;;;;;;4.10;2.65;;;;;;;0.12;100.00;97313.00;1224571;75;2924066;-65
2024/01/19 09:05:21;;;;;;;3.45;2.80;;;;;;;0.27;100.00;97305.44;1223626;75;2927308;-64
2024/01/19 09:07:54;;;;;;;3.45;2.40;;;;;;;0.31;100.00;97314.94;1224218;75;2924958;-64
2024/01/19 09:10:27;;;;;;;3.75;3.10;;;;;;;0.26;100.00;97325.44;1223602;75;2922637;-66
2024/01/19 09:13:00;;;;;;;2.85;2.50;;;;;;;0.31;100.00;97339.16;1224731;75;2917241;-64
2024/01/19 09:15:33;;;;;;;4.20;2.60;;;;;;;0.52;100.00;97345.31;1224065;75;2923045;-64
2024/01/19 09:18:07;;;;;;;3.05;2.15;;;;;;;0.62;100.00;97374.72;1224211;75;2924550;-64
2024/01/19 09:20:42;;;;;;;2.70;2.25;;;;;;;0.81;100.00;97380.50;1224184;75;2923462;-68
2024/01/19 09:23:15;;;;;;;3.30;2.25;;;;;;;0.72;100.00;97383.78;1222582;75;2946219;-65
2024/01/19 09:25:48;;;;;;;2.20;1.90;;;;;;;0.73;100.00;97392.63;1224349;75;2920761;-65
2024/01/19 09:28:21;;;;;;;2.85;2.30;;;;;;;0.64;100.00;97406.63;1225059;75;2917614;-64
2024/01/19 09:30:55;;;;;;;3.55;2.20;;;;;;;0.92;100.00;97404.56;1224115;75;2928246;-66
2024/01/19 09:33:30;;;;;;;2.35;1.90;;;;;;;1.10;100.00;97415.69;1224760;75;2918185;-63
2024/01/19 09:36:06;;;;;;;2.05;1.70;;;;;;;1.36;100.00;97421.31;1224640;75;2923121;-66
2024/01/19 09:38:38;;;;;;;3.35;2.35;;;;;;;0.79;100.00;97434.06;1224619;75;2921250;-65
2024/01/19 09:41:29;;;;;;;2.05;1.80;;;;;;;1.29;100.00;97427.63;1225627;75;2920637;-64
2024/01/19 09:44:05;;;;;;;2.20;1.80;;;;;;;1.48;100.00;97426.81;1223395;75;2918577;-64
2024/01/19 09:46:54;;;;;;;2.65;2.15;;;;;;;1.06;100.00;97442.00;1224419;75;2918434;-66
2024/01/19 09:49:44;;;;;;;3.20;2.25;;;;;;;1.26;100.00;97441.94;1224200;75;2920187;-65
2024/01/19 09:52:37;;;;;;;3.30;2.70;;;;;;;1.26;100.00;97464.28;1224063;75;2921664;-64
2024/01/19 09:55:11;;;;;;;4.00;2.40;;;;;;;1.45;100.00;97461.97;1223729;75;2919138;-67
2024/01/19 09:57:49;;;;;;;2.10;1.90;;;;;;;1.72;100.00;97463.69;1223958;75;2924000;-66
2024/01/19 10:00:23;;;;;;;2.10;1.90;;;;;;;1.86;100.00;97461.41;1224055;75;2928178;-65
2024/01/19 10:02:57;;;;;;;1.50;1.40;;;;;;;1.99;100.00;97464.19;1224218;75;2925380;-64
2024/01/19 10:05:30;;;;;;;2.95;2.30;;;;;;;1.53;100.00;97474.09;1224796;75;2920057;-64
2024/01/19 10:08:07;;;;;;;3.40;2.30;;;;;;;1.35;100.00;97489.91;1223882;75;2929463;-68
2024/01/19 10:10:40;;;;;;;2.30;2.00;;;;;;;1.54;100.00;97497.22;1223459;75;2923757;-63
2024/01/19 10:13:12;;;;;;;3.30;2.70;;;;;;;1.37;100.00;97496.44;1224249;75;2927186;-67
2024/01/19 10:15:47;;;;;;;3.75;2.75;;;;;;;1.07;100.00;97500.09;1224232;75;2921248;-65
2024/01/19 10:18:21;;;;;;;2.85;2.40;;;;;;;1.52;100.00;97512.31;1223907;75;2956557;-63
2024/01/19 10:20:55;;;;;;;2.40;2.00;;;;;;;1.17;100.00;97520.69;1223869;75;2924886;-65
2024/01/19 10:23:30;;;;;;;3.35;2.65;;;;;;;1.17;100.00;97522.63;1225645;75;2926616;-63
2024/01/19 10:26:18;;;;;;;3.30;2.45;;;;;;;1.42;100.00;97531.00;1225474;75;2922554;-65
2024/01/19 10:28:51;;;;;;;6.10;4.30;;;;;;;0.97;100.00;97533.44;1225323;75;2927290;-65
2024/01/19 10:31:26;;;;;;;5.85;4.20;;;;;;;0.95;100.00;97541.16;1223562;75;2927589;-66
2024/01/19 10:33:59;;;;;;;4.20;3.20;;;;;;;1.09;100.00;97542.84;1224463;75;2926080;-66
2024/01/19 10:36:41;;;;;;;5.90;3.70;;;;;;;0.80;100.00;97538.72;1224006;75;2922466;-66
2024/01/19 10:39:23;;;;;;;6.00;3.95;;;;;;;0.74;100.00;97539.63;1223953;75;2934493;-67
2024/01/19 10:42:09;;;;;;;4.55;3.20;;;;;;;0.92;100.00;97539.31;1222539;75;2937162;-65
2024/01/19 10:44:41;;;;;;;3.95;3.00;;;;;;;1.38;100.00;97537.63;1224557;75;2927007;-66
2024/01/19 10:47:16;;;;;;;3.25;2.70;;;;;;;1.18;100.00;97543.81;1224140;75;2919169;-66
2024/01/19 10:49:49;;;;;;;4.05;3.25;;;;;;;1.17;100.00;97555.00;1224674;75;2917200;-65
2024/01/19 10:52:21;;;;;;;3.80;3.40;;;;;;;1.13;100.00;97565.84;1194949;75;5201145;-65
2024/01/19 10:54:57;;;;;;;5.15;3.65;;;;;;;1.15;100.00;97554.63;1224478;75;2914134;-68
2024/01/19 10:57:30;;;;;;;4.25;3.65;;;;;;;1.16;100.00;97562.31;1225123;75;2921045;-66
2024/01/19 11:00:20;;;;;;;4.00;3.60;;;;;;;1.06;100.00;97560.59;1224149;75;2920829;-65
2024/01/19 11:02:58;;;;;;;5.50;3.70;;;;;;;1.09;100.00;97554.38;1224278;75;2926455;-62
2024/01/19 11:05:31;;;;;;;6.30;4.50;;;;;;;1.33;100.00;97568.53;1224850;75;2921345;-64
2024/01/19 11:08:06;;;;;;;5.75;4.50;;;;;;;0.91;100.00;97576.25;1223951;75;2922770;-65
2024/01/19 11:10:42;;;;;;;7.90;5.20;;;;;;;1.02;100.00;97587.59;1223398;75;2917160;-64
2024/01/19 11:13:17;;;;;;;8.00;5.20;;;;;;;0.97;100.00;97588.09;1224699;75;2923782;-64
2024/01/19 11:15:53;;;;;;;4.25;3.70;;;;;;;1.03;100.00;97577.59;1225328;75;2919897;-66
2024/01/19 11:18:28;;;;;;;5.50;4.05;;;;;;;1.14;100.00;97570.06;1224511;75;2925236;-64
2024/01/19 11:21:01;;;;;;;6.10;4.25;;;;;;;1.29;100.00;97584.03;1224161;75;2913849;-66
2024/01/19 11:23:38;;;;;;;7.05;4.15;;;;;;;1.40;100.00;97579.19;1224001;75;2925698;-64
2024/01/19 11:26:20;;;;;;;4.60;3.90;;;;;;;1.55;100.00;97574.25;1222396;75;3076540;-64
2024/01/19 11:29:03;;;;;;;5.55;4.10;;;;;;;1.59;100.00;97591.16;1224446;75;2935308;-67
2024/01/19 11:31:42;;;;;;;4.45;3.30;;;;;;;1.87;100.00;97586.31;1222967;75;2926347;-66
2024/01/19 11:34:49;;;;;;;5.35;4.20;;;;;;;1.54;100.00;97578.16;1224619;75;2920926;-65
2024/01/19 11:37:47;;;;;;;4.75;3.90;;;;;;;1.95;100.00;97592.31;1224605;75;2925808;-65
2024/01/19 11:40:50;;;;;;;8.80;4.20;;;;;;;1.65;100.00;97599.50;1224892;75;2911324;-64
2024/01/19 11:43:49;;;;;;;7.20;4.70;;;;;;;1.83;100.00;97593.75;1224639;75;2920786;-64
2024/01/19 11:46:45;;;;;;;5.65;4.30;;;;;;;2.06;100.00;97587.44;1222482;75;2919856;-65
2024/01/19 11:49:49;;;;;;;5.40;3.60;;;;;;;2.04;100.00;97581.72;1224566;75;2930326;-64